createdAt,value
2023-02-06T00:02:49.108Z,4.50
2023-02-06T00:06:58.792Z,4.50
2023-02-06T00:11:09.584Z,3.70
2023-02-06T00:15:18.160Z,3.03
2023-02-06T00:19:28.822Z,4.13
2023-02-06T00:23:39.394Z,3.80
2023-02-06T00:27:49.460Z,3.90
2023-02-06T00:31:58.021Z,4.53
2023-02-06T00:36:09.351Z,4.57
2023-02-06T00:40:18.685Z,4.90
2023-02-06T00:44:29.929Z,5.73
2023-02-06T00:48:38.652Z,3.90
2023-02-06T00:52:47.493Z,3.60
2023-02-06T00:56:56.246Z,3.43
2023-02-06T01:01:04.937Z,4.10
2023-02-06T01:05:13.562Z,5.83
2023-02-06T01:09:26.680Z,3.73
2023-02-06T01:13:36.723Z,5.10
2023-02-06T01:17:45.350Z,3.27
2023-02-06T01:21:54.091Z,4.27
2023-02-06T01:26:08.323Z,4.20
2023-02-06T01:30:16.902Z,4.00
2023-02-06T01:34:25.468Z,3.60
2023-02-06T01:38:34.307Z,4.43
2023-02-06T01:42:43.027Z,3.87
2023-02-06T01:46:54.752Z,4.93
2023-02-06T01:51:08.321Z,4.07
2023-02-06T01:55:17.528Z,4.40
2023-02-06T01:59:31.479Z,3.77
2023-02-06T02:03:42.664Z,4.90
2023-02-06T02:08:02.977Z,3.40
2023-02-06T02:12:11.863Z,3.40
2023-02-06T02:16:40.304Z,5.20
2023-02-06T02:21:16.031Z,5.07
2023-02-06T02:25:47.051Z,4.90
2023-02-06T02:30:14.933Z,4.30
2023-02-06T02:39:06.046Z,4.90
2023-02-06T02:43:26.618Z,4.00
2023-02-06T02:47:38.481Z,4.53
2023-02-06T02:51:51.599Z,4.03
2023-02-06T02:56:00.381Z,4.27
2023-02-06T03:00:10.827Z,3.10
2023-02-06T03:04:25.646Z,4.77
2023-02-06T03:09:07.587Z,4.10
2023-02-06T03:13:20.634Z,3.57
2023-02-06T03:17:38.078Z,4.00
2023-02-06T03:21:48.185Z,4.27
2023-02-06T03:25:59.838Z,2.63
2023-02-06T03:30:10.792Z,3.93
2023-02-06T03:34:32.647Z,4.43
2023-02-06T03:38:43.023Z,6.60
2023-02-06T03:42:54.730Z,3.97
2023-02-06T03:47:05.740Z,4.57
2023-02-06T03:51:20.318Z,3.90
2023-02-06T03:55:29.057Z,4.13
2023-02-06T03:59:37.617Z,3.83
2023-02-06T04:03:46.542Z,7.03
2023-02-06T04:07:59.788Z,3.43
2023-02-06T04:12:08.956Z,6.50
2023-02-06T04:16:18.958Z,4.33
2023-02-06T04:20:27.885Z,3.50
2023-02-06T04:24:39.889Z,4.20
2023-02-06T04:28:48.554Z,3.00
2023-02-06T04:32:57.351Z,3.03
2023-02-06T04:37:09.035Z,3.97
2023-02-06T04:41:17.917Z,4.93
2023-02-06T04:45:28.259Z,3.90
2023-02-06T04:49:36.821Z,3.30
2023-02-06T04:53:45.762Z,4.67
2023-02-06T04:57:54.492Z,3.70
2023-02-06T05:02:03.101Z,3.67
2023-02-06T05:06:11.811Z,5.10
2023-02-06T05:10:23.519Z,4.37
2023-02-06T05:14:32.382Z,4.17
2023-02-06T05:18:42.085Z,4.17
2023-02-06T05:22:50.682Z,4.40
2023-02-06T05:26:59.278Z,4.50
2023-02-06T05:31:09.206Z,4.83
2023-02-06T05:35:18.280Z,3.60
2023-02-06T05:39:28.096Z,5.40
2023-02-06T05:43:38.367Z,4.10
2023-02-06T05:47:49.330Z,3.80
2023-02-06T05:51:57.866Z,4.80
2023-02-06T05:56:06.765Z,4.40
2023-02-06T06:00:15.932Z,4.10
2023-02-06T06:04:24.540Z,4.40
2023-02-06T06:08:33.704Z,4.70
2023-02-06T06:12:42.281Z,3.90
2023-02-06T06:16:50.897Z,5.20
2023-02-06T06:20:59.460Z,3.77
2023-02-06T06:25:08.341Z,4.10
2023-02-06T06:29:25.927Z,5.40
2023-02-06T06:33:41.235Z,4.20
2023-02-06T06:37:52.280Z,4.93
2023-02-06T06:42:00.955Z,4.70
2023-02-06T06:46:12.496Z,5.13
2023-02-06T06:50:21.108Z,4.77
2023-02-06T06:54:29.806Z,4.10
2023-02-06T06:58:41.060Z,4.10
2023-02-06T07:02:51.276Z,4.10
2023-02-06T07:06:59.890Z,6.07
2023-02-06T07:11:10.072Z,4.40
2023-02-06T07:15:18.642Z,6.60
2023-02-06T07:19:27.201Z,5.13
2023-02-06T07:23:37.967Z,6.40
2023-02-06T07:27:47.127Z,4.20
2023-02-06T07:31:55.711Z,4.93
2023-02-06T07:36:04.497Z,5.97
2023-02-06T07:40:16.490Z,5.17
2023-02-06T07:44:25.128Z,5.57
2023-02-06T07:48:33.760Z,4.17
2023-02-06T07:52:42.314Z,4.93
2023-02-06T07:56:50.863Z,5.50
2023-02-06T08:01:01.019Z,4.30
2023-02-06T08:05:10.327Z,4.47
2023-02-06T08:09:18.900Z,4.57
2023-02-06T08:13:27.447Z,5.33
2023-02-06T08:17:36.149Z,4.50
2023-02-06T08:21:44.683Z,4.47
2023-02-06T08:25:53.249Z,4.90
2023-02-06T08:30:01.913Z,6.67
2023-02-06T08:34:12.999Z,4.60
2023-02-06T08:38:21.914Z,5.13
2023-02-06T08:42:30.473Z,6.07
2023-02-06T08:46:40.077Z,6.50
2023-02-06T08:50:48.625Z,5.80
2023-02-06T08:54:57.208Z,6.87
2023-02-06T08:59:07.388Z,6.20
2023-02-06T09:03:15.930Z,6.17
2023-02-06T09:07:24.575Z,5.57
2023-02-06T09:11:33.675Z,6.67
2023-02-06T09:15:43.257Z,5.60
2023-02-06T09:19:51.834Z,7.03
2023-02-06T09:24:03.116Z,5.67
2023-02-06T09:28:12.891Z,6.20
2023-02-06T09:32:21.492Z,4.93
2023-02-06T09:36:30.587Z,4.20
2023-02-06T09:40:42.249Z,5.00
2023-02-06T09:44:53.987Z,4.97
2023-02-06T09:49:05.652Z,4.23
2023-02-06T09:53:30.174Z,4.87
2023-02-06T09:57:47.990Z,4.50
2023-02-06T10:02:17.255Z,5.37
2023-02-06T10:06:32.312Z,5.00
2023-02-06T10:10:52.757Z,5.27
2023-02-06T10:15:07.016Z,5.10
2023-02-06T10:19:24.290Z,7.90
2023-02-06T10:23:47.386Z,8.80
2023-02-06T10:28:01.083Z,11.40
2023-02-06T10:32:18.723Z,11.40
2023-02-06T10:36:46.916Z,15.23
2023-02-06T10:41:04.115Z,14.43
2023-02-06T10:45:35.199Z,16.67
2023-02-06T10:49:47.055Z,15.30
2023-02-06T10:53:59.115Z,19.03
2023-02-06T10:58:19.520Z,18.80
2023-02-06T11:03:06.177Z,21.50
2023-02-06T11:07:07.240Z,22.90
2023-02-06T11:11:21.995Z,24.10
2023-02-06T11:15:57.397Z,20.13
2023-02-06T11:20:14.762Z,24.70
2023-02-06T11:24:25.387Z,19.57
2023-02-06T11:28:35.677Z,18.30
2023-02-06T11:32:58.902Z,22.13
2023-02-06T11:37:00.886Z,19.60
2023-02-06T11:41:18.327Z,17.00
2023-02-06T11:45:30.349Z,18.80
2023-02-06T11:49:39.026Z,18.50
2023-02-06T11:54:02.617Z,18.10
2023-02-06T11:58:17.177Z,16.70
2023-02-06T12:02:28.865Z,15.83
2023-02-06T12:06:41.025Z,16.43
2023-02-06T12:10:54.451Z,14.40
2023-02-06T12:15:33.003Z,15.40
2023-02-06T12:19:31.680Z,17.20
2023-02-06T12:23:46.052Z,14.03
2023-02-06T12:27:57.759Z,14.03
2023-02-06T12:32:16.114Z,9.43
2023-02-06T12:36:27.570Z,9.07
2023-02-06T12:40:54.384Z,8.23
2023-02-06T12:45:06.037Z,7.90
2023-02-06T12:49:17.861Z,8.70
2023-02-06T12:53:32.136Z,8.07
2023-02-06T12:57:41.128Z,7.00
2023-02-06T13:01:55.754Z,8.50
2023-02-06T13:06:22.052Z,9.80
2023-02-06T13:10:30.629Z,11.20
2023-02-06T13:14:57.871Z,10.77
2023-02-06T13:19:06.535Z,9.00
2023-02-06T13:23:18.130Z,9.93
2023-02-06T13:27:40.546Z,11.60
2023-02-06T13:31:49.199Z,11.10
2023-02-06T13:36:00.185Z,9.13
2023-02-06T13:40:34.396Z,10.37
2023-02-06T13:44:43.201Z,12.47
2023-02-06T13:49:06.636Z,12.07
2023-02-06T13:58:50.659Z,8.97
2023-02-06T14:03:06.328Z,9.93
2023-02-06T14:07:37.577Z,8.47
2023-02-06T14:12:24.993Z,11.27
2023-02-06T14:16:52.723Z,7.90
2023-02-06T14:21:16.311Z,7.23
2023-02-06T14:25:50.437Z,6.97
2023-02-06T14:30:16.812Z,10.07
2023-02-06T14:39:02.704Z,8.07
2023-02-06T14:43:16.466Z,7.70
2023-02-06T14:47:28.100Z,8.30
2023-02-06T14:51:41.296Z,8.00
2023-02-06T14:55:50.292Z,8.20
2023-02-06T15:00:04.437Z,8.57
2023-02-06T15:04:15.674Z,7.13
2023-02-06T15:08:24.227Z,6.90
2023-02-06T15:12:33.053Z,9.63
2023-02-06T15:16:49.824Z,8.13
2023-02-06T15:21:13.306Z,8.00
2023-02-06T15:25:45.737Z,5.70
2023-02-06T15:29:54.843Z,8.10
2023-02-06T15:34:03.966Z,6.70
2023-02-06T15:38:15.274Z,6.87
2023-02-06T15:42:24.188Z,6.20
2023-02-06T15:46:33.098Z,7.27
2023-02-06T15:50:41.671Z,6.00
2023-02-06T15:54:53.317Z,8.00
2023-02-06T15:59:07.671Z,6.90
2023-02-06T16:03:22.128Z,5.77
2023-02-06T16:07:35.261Z,6.50
2023-02-06T16:11:46.509Z,6.17
2023-02-06T16:16:10.106Z,7.27
2023-02-06T16:20:27.772Z,8.27
2023-02-06T16:24:36.451Z,6.20
2023-02-06T16:29:02.735Z,5.97
2023-02-06T16:33:14.375Z,5.10
2023-02-06T16:37:26.087Z,6.20
2023-02-06T16:41:37.477Z,7.90
2023-02-06T16:45:46.551Z,6.03
2023-02-06T16:49:55.242Z,6.87
2023-02-06T16:54:05.330Z,7.17
2023-02-06T16:58:17.944Z,5.97
2023-02-06T17:02:28.043Z,6.93
2023-02-06T17:06:37.445Z,6.83
2023-02-06T17:10:46.921Z,6.27
2023-02-06T17:14:55.501Z,7.77
2023-02-06T17:19:04.143Z,8.73
2023-02-06T17:23:14.136Z,9.43
2023-02-06T17:27:23.735Z,8.07
2023-02-06T17:31:32.375Z,6.33
2023-02-06T17:35:40.950Z,8.30
2023-02-06T17:39:51.249Z,8.30
2023-02-06T17:43:59.809Z,7.63
2023-02-06T17:48:09.123Z,8.50
2023-02-06T17:52:18.236Z,8.57
2023-02-06T17:56:27.072Z,8.47
2023-02-06T18:00:35.933Z,7.63
2023-02-06T18:04:46.309Z,7.17
2023-02-06T18:08:54.881Z,8.63
2023-02-06T18:13:03.439Z,8.83
2023-02-06T18:17:12.670Z,7.83
2023-02-06T18:21:23.718Z,7.63
2023-02-06T18:25:32.253Z,9.03
2023-02-06T18:29:50.699Z,10.30
2023-02-06T18:33:58.563Z,9.20
2023-02-06T18:38:08.753Z,9.50
2023-02-06T18:42:35.395Z,10.27
2023-02-06T18:46:44.110Z,8.53
2023-02-06T18:50:52.755Z,8.20
2023-02-06T18:55:01.401Z,8.00
2023-02-06T18:59:09.956Z,8.03
2023-02-06T19:03:25.096Z,8.10
2023-02-06T19:07:33.767Z,8.17
2023-02-06T19:11:44.730Z,6.20
2023-02-06T19:15:56.391Z,8.07
2023-02-06T19:20:05.660Z,7.10
2023-02-06T19:24:15.967Z,8.50
2023-02-06T19:28:24.539Z,7.97
2023-02-06T19:32:34.832Z,9.90
2023-02-06T19:36:43.607Z,8.67
2023-02-06T19:40:53.630Z,7.73
2023-02-06T19:45:03.869Z,7.40
2023-02-06T19:49:12.610Z,8.00
2023-02-06T19:53:21.128Z,10.03
2023-02-06T19:57:29.696Z,8.57
2023-02-06T20:01:38.357Z,7.13
2023-02-06T20:05:46.948Z,6.40
2023-02-06T20:09:57.281Z,7.80
2023-02-06T20:14:06.309Z,6.40
2023-02-06T20:18:16.647Z,6.43
2023-02-06T20:22:26.618Z,8.50
2023-02-06T20:26:37.670Z,6.50
2023-02-06T20:30:48.004Z,7.07
2023-02-06T20:34:58.366Z,7.43
2023-02-06T20:39:08.702Z,8.10
2023-02-06T20:43:17.353Z,8.33
2023-02-06T20:47:35.498Z,8.43
2023-02-06T20:51:44.163Z,8.50
2023-02-06T20:55:53.159Z,8.53
2023-02-06T21:00:01.731Z,7.70
2023-02-06T21:04:12.297Z,8.13
2023-02-06T21:08:22.627Z,6.10
2023-02-06T21:12:31.165Z,6.60
2023-02-06T21:16:40.690Z,8.53
2023-02-06T21:20:50.126Z,7.23
2023-02-06T21:24:59.161Z,7.57
2023-02-06T21:29:08.030Z,6.07
2023-02-06T21:33:21.471Z,8.00
2023-02-06T21:37:30.031Z,7.20
2023-02-06T21:41:38.753Z,9.17
2023-02-06T21:45:48.805Z,8.90
2023-02-06T21:49:59.187Z,7.70
2023-02-06T21:54:08.192Z,7.83
2023-02-06T21:58:16.808Z,7.60
2023-02-06T22:02:25.383Z,6.90
2023-02-06T22:06:37.774Z,6.57
2023-02-06T22:10:46.332Z,7.53
2023-02-06T22:14:56.414Z,8.10
2023-02-06T22:19:06.357Z,8.10
2023-02-06T22:23:14.856Z,8.20
2023-02-06T22:27:25.422Z,8.33
2023-02-06T22:31:35.335Z,6.13
2023-02-06T22:35:43.974Z,8.30
2023-02-06T22:39:54.058Z,7.57
2023-02-06T22:44:02.992Z,6.83
2023-02-06T22:48:11.551Z,7.90
2023-02-06T22:52:37.939Z,7.40
2023-02-06T22:56:46.882Z,7.50
2023-02-06T23:00:58.515Z,6.80
2023-02-06T23:05:07.299Z,7.50
2023-02-06T23:09:19.073Z,10.40
2023-02-06T23:13:27.883Z,7.80
2023-02-06T23:17:36.448Z,8.80
2023-02-06T23:21:46.745Z,8.23
2023-02-06T23:25:55.823Z,7.80
2023-02-06T23:30:04.645Z,7.83
2023-02-06T23:34:13.813Z,7.97
2023-02-06T23:38:22.418Z,9.87
2023-02-06T23:42:31.065Z,10.67
2023-02-06T23:46:40.651Z,7.93
2023-02-06T23:50:49.187Z,7.80
2023-02-06T23:54:57.750Z,9.13
2023-02-06T23:59:07.397Z,7.83
